TimeEDT,TemperatureF,Dew PointF,Humidity,Sea Level PressureIn,VisibilityMPH,Wind Direction,Wind SpeedMPH,Gust SpeedMPH,PrecipitationIn,Events,Conditions,WindDirDegrees,DateUTC
12:56 AM,73.9,66.0,76,30.08,10.0,SSE,6.9,-,N/A,,Scattered Clouds,150,2013-06-23 04:56:00
1:56 AM,73.9,66.9,79,30.06,10.0,SSE,6.9,-,N/A,,Clear,150,2013-06-23 05:56:00
2:56 AM,72.0,66.9,84,30.05,10.0,Calm,Calm,-,N/A,,Clear,0,2013-06-23 06:56:00
3:56 AM,72.0,66.9,84,30.06,10.0,Calm,Calm,-,N/A,,Clear,0,2013-06-23 07:56:00
4:56 AM,72.0,66.9,84,30.08,9.0,East,3.5,-,N/A,,Clear,100,2013-06-23 08:56:00
5:56 AM,71.1,66.9,87,30.09,8.0,SE,5.8,-,N/A,,Partly Cloudy,130,2013-06-23 09:56:00
6:56 AM,71.1,66.9,87,30.11,7.0,Calm,Calm,-,N/A,,Scattered Clouds,0,2013-06-23 10:56:00
7:56 AM,73.0,66.9,81,30.12,8.0,Calm,Calm,-,N/A,,Scattered Clouds,0,2013-06-23 11:56:00
8:56 AM,77.0,68.0,74,30.13,9.0,Calm,Calm,-,N/A,,Partly Cloudy,0,2013-06-23 12:56:00
9:56 AM,82.0,66.9,60,30.13,10.0,South,5.8,-,N/A,,Partly Cloudy,180,2013-06-23 13:56:00
10:56 AM,84.0,68.0,58,30.12,10.0,Variable,4.6,-,N/A,,Partly Cloudy,0,2013-06-23 14:56:00
11:56 AM,84.9,68.0,57,30.11,10.0,SW,9.2,-,N/A,,Scattered Clouds,220,2013-06-23 15:56:00
12:56 PM,87.1,66.9,51,30.10,10.0,SSW,10.4,-,N/A,,Mostly Cloudy,210,2013-06-23 16:56:00
1:37 PM,80.6,66.2,61,30.12,10.0,WSW,11.5,-,0.00,Rain-Thunderstorm,Thunderstorms and Rain,250,2013-06-23 17:37:00
1:56 PM,82.9,66.0,56,30.10,10.0,WSW,8.1,-,0.00,Rain-Thunderstorm,Light Thunderstorms and Rain,240,2013-06-23 17:56:00
2:05 PM,84.2,66.2,55,30.11,10.0,SW,9.2,-,0.00,,Mostly Cloudy,220,2013-06-23 18:05:00
2:56 PM,88.0,64.9,46,30.09,10.0,SSW,11.5,19.6,0.00,,Mostly Cloudy,200,2013-06-23 18:56:00
3:56 PM,87.1,64.0,46,30.07,10.0,South,11.5,-,N/A,,Mostly Cloudy,180,2013-06-23 19:56:00
4:56 PM,84.9,63.0,48,30.07,10.0,SW,9.2,-,N/A,,Mostly Cloudy,220,2013-06-23 20:56:00
5:56 PM,82.0,66.9,60,30.06,10.0,North,13.8,-,N/A,,Mostly Cloudy,360,2013-06-23 21:56:00
6:56 PM,82.0,66.9,60,30.05,10.0,NNE,4.6,-,N/A,,Mostly Cloudy,30,2013-06-23 22:56:00
7:56 PM,81.0,66.9,62,30.06,10.0,NNE,6.9,-,N/A,,Mostly Cloudy,30,2013-06-23 23:56:00
8:56 PM,80.1,68.0,67,30.06,9.0,Calm,Calm,-,N/A,,Mostly Cloudy,0,2013-06-24 00:56:00
9:56 PM,80.1,66.9,64,30.07,10.0,Calm,Calm,-,N/A,,Mostly Cloudy,0,2013-06-24 01:56:00
10:56 PM,77.0,68.0,74,30.09,10.0,ESE,4.6,-,N/A,,Scattered Clouds,120,2013-06-24 02:56:00
11:56 PM,75.9,68.0,76,30.10,9.0,Calm,Calm,-,N/A,,Scattered Clouds,0,2013-06-24 03:56:00